ADDS TAF Board INFO
 
 

IDs: Format: Expanded Condensed

KCVG - Cincinnati Intl, KY, US

Issued at 1135 UTC 29 Jul 2014
Time1152Z29/13Z29/14Z29/15Z29/16Z29/17Z29/18Z29/19Z29/20Z29/21Z29/22Z29/23Z30/00Z30/01Z
TypeOBSPRVLPRVLPRVLPRVLPRVLPRVLPRVLPRVLPRVLPRVLPRVLPRVLPRVL
Vis10>6>6>6>6>6>6>6>6>6>6>6>6>6
Cig------40404040404040404040--
CoverFEWSCTSCTBKNBKNBKNBKNBKNBKNBKNBKNBKNBKNSCT
FltCat--VFRVFRVFRVFRVFRVFRVFRVFRVFRVFRVFRVFRVFR
Wx----------------------------
WDir320310310310310310310310310310310310310270
WSpd75588888888883
WGst----------------------------
R09/27
XWnd5335555555555-0
HWnd-4-4-4-6-6-6-6-6-6-6-6-6-6-3
R18/36
XWnd-4-4-4-6-6-6-6-6-6-6-6-6-6-3
HWnd-5-3-3-5-5-5-5-5-5-5-5-5-50
Raw TAF
KCVG 291135Z 2912/3018 31005KT P6SM SCT035
  FM291500 31008KT P6SM BKN040
  FM300100 27003KT P6SM SCT040
  FM301500 26007KT P6SM BKN040


Raw METAR
KCVG 291152Z 32007KT 10SM FEW020 12/10 A3004 RMK AO2 SLP168 T01220100 10133 20100 53010

TAF Board Legend

Hazard Green Yellow Red Magenta
Visibility (sm) >5 >2.99 >0.99 <=0.99
Ceiling (100 ft) >30 >9.99 >4.99 <=4.99
Wind Speed (kt) <10 <20 <30 >=30
Wind Gust (kt) <10 <20 <30 >=30
Weather No Wx Reported Light precipitation Moderate precipitation Heavy precipitation
Flight Category VFR MVFR IFR LIFR

Page loaded:  12:43 UTC  |   05:43 AM Pacific  |   06:43 AM Mountain  |   07:43 AM Central  |   08:43 AM Eastern

 

ADVISORIES

FORECASTS

FORECASTS

OBSERVATIONS

USER TOOLS

ABOUT US